Lindsey, Ohio
Current Conditions -  °F | °C
As of 10:53 AM on Thursday 29 Jan 2015 (Local Time) from KTDZ Reporting Station
Overcast Overcast  
Wind Chill: 31°   Ceiling: 3800
Heat Index: 38°   Visibility: 10mi
Dew Point: 29°   Wind: 10mph
Humidity: 70%   Direction: 200°SSW
Pressure: 29.76"   Gusts: NA
Location:  41.42°N, 83.22°W
Report Text: KTDZ 291553Z AUTO 20009KT 10SM OVC038 03/M02 A2976 RMK AO2 SLP084 T00331017 TSNO
Loading
Personal Weather Stations






























Interactive Weather Map New forecast layout! Learn more

10-Day Weather Forecast

Advertisements
Track Severe Weather on mobile